sensor_id;sensor_type;location;lat;lon;timestamp;P1;durP1;ratioP1;P2;durP2;ratioP2
71790;SDS011;59638;52.126;5.434;2022-07-18T00:01:43;3.78;;;3.10;;
71790;SDS011;59638;52.126;5.434;2022-07-18T00:04:10;4.82;;;2.95;;
71790;SDS011;59638;52.126;5.434;2022-07-18T00:06:36;5.95;;;2.63;;
71790;SDS011;59638;52.126;5.434;2022-07-18T00:09:03;6.00;;;3.78;;
71790;SDS011;59638;52.126;5.434;2022-07-18T00:11:30;3.63;;;2.53;;
71790;SDS011;59638;52.126;5.434;2022-07-18T00:13:56;7.70;;;3.28;;
71790;SDS011;59638;52.126;5.434;2022-07-18T00:16:23;8.02;;;3.47;;
71790;SDS011;59638;52.126;5.434;2022-07-18T00:18:50;3.60;;;2.20;;
71790;SDS011;59638;52.126;5.434;2022-07-18T00:21:16;4.05;;;3.00;;
71790;SDS011;59638;52.126;5.434;2022-07-18T00:23:43;5.73;;;2.83;;
71790;SDS011;59638;52.126;5.434;2022-07-18T00:26:09;5.47;;;2.67;;
71790;SDS011;59638;52.126;5.434;2022-07-18T00:28:36;8.43;;;3.22;;
71790;SDS011;59638;52.126;5.434;2022-07-18T00:31:03;6.45;;;3.00;;
71790;SDS011;59638;52.126;5.434;2022-07-18T00:33:29;4.40;;;2.72;;
71790;SDS011;59638;52.126;5.434;2022-07-18T00:35:55;9.83;;;2.60;;
71790;SDS011;59638;52.126;5.434;2022-07-18T00:38:22;5.88;;;3.47;;
71790;SDS011;59638;52.126;5.434;2022-07-18T00:40:48;5.18;;;3.35;;
71790;SDS011;59638;52.126;5.434;2022-07-18T00:43:15;8.45;;;3.40;;
71790;SDS011;59638;52.126;5.434;2022-07-18T00:45:46;6.43;;;3.30;;
71790;SDS011;59638;52.126;5.434;2022-07-18T00:48:15;6.10;;;3.60;;
71790;SDS011;59638;52.126;5.434;2022-07-18T00:50:42;4.85;;;3.40;;
71790;SDS011;59638;52.126;5.434;2022-07-18T00:53:09;7.63;;;3.90;;
71790;SDS011;59638;52.126;5.434;2022-07-18T00:55:37;5.45;;;3.40;;
71790;SDS011;59638;52.126;5.434;2022-07-18T00:58:05;5.32;;;3.63;;
71790;SDS011;59638;52.126;5.434;2022-07-18T01:00:31;6.90;;;3.57;;
71790;SDS011;59638;52.126;5.434;2022-07-18T01:03:16;5.80;;;3.80;;
71790;SDS011;59638;52.126;5.434;2022-07-18T01:05:43;7.90;;;4.00;;
71790;SDS011;59638;52.126;5.434;2022-07-18T01:08:09;7.80;;;4.60;;
71790;SDS011;59638;52.126;5.434;2022-07-18T01:10:36;7.53;;;3.90;;
71790;SDS011;59638;52.126;5.434;2022-07-18T01:13:02;5.50;;;4.00;;
71790;SDS011;59638;52.126;5.434;2022-07-18T01:15:29;7.65;;;3.83;;
71790;SDS011;59638;52.126;5.434;2022-07-18T01:17:55;8.25;;;4.13;;
71790;SDS011;59638;52.126;5.434;2022-07-18T01:20:26;7.80;;;5.03;;
71790;SDS011;59638;52.126;5.434;2022-07-18T01:22:53;7.25;;;5.07;;
71790;SDS011;59638;52.126;5.434;2022-07-18T01:25:19;10.70;;;5.13;;
71790;SDS011;59638;52.126;5.434;2022-07-18T01:27:46;6.70;;;4.72;;
71790;SDS011;59638;52.126;5.434;2022-07-18T01:30:12;8.05;;;4.82;;
71790;SDS011;59638;52.126;5.434;2022-07-18T01:32:39;6.38;;;4.10;;
71790;SDS011;59638;52.126;5.434;2022-07-18T01:35:05;9.48;;;5.30;;
71790;SDS011;59638;52.126;5.434;2022-07-18T01:37:32;6.63;;;4.30;;
71790;SDS011;59638;52.126;5.434;2022-07-18T01:39:58;6.35;;;5.07;;
71790;SDS011;59638;52.126;5.434;2022-07-18T01:42:25;6.47;;;5.03;;
71790;SDS011;59638;52.126;5.434;2022-07-18T01:44:51;8.20;;;4.50;;
71790;SDS011;59638;52.126;5.434;2022-07-18T01:47:18;9.50;;;4.70;;
71790;SDS011;59638;52.126;5.434;2022-07-18T01:49:44;8.60;;;4.60;;
71790;SDS011;59638;52.126;5.434;2022-07-18T01:52:10;5.90;;;3.80;;
71790;SDS011;59638;52.126;5.434;2022-07-18T01:54:37;9.80;;;4.88;;
71790;SDS011;59638;52.126;5.434;2022-07-18T01:57:05;11.27;;;5.25;;
71790;SDS011;59638;52.126;5.434;2022-07-18T01:59:32;5.35;;;4.53;;
71790;SDS011;59638;52.126;5.434;2022-07-18T02:01:58;5.90;;;4.37;;
71790;SDS011;59638;52.126;5.434;2022-07-18T02:04:25;8.35;;;4.75;;
71790;SDS011;59638;52.126;5.434;2022-07-18T02:07:10;6.63;;;4.68;;
71790;SDS011;59638;52.126;5.434;2022-07-18T02:09:37;6.45;;;4.15;;
71790;SDS011;59638;52.126;5.434;2022-07-18T02:12:03;7.72;;;5.03;;
71790;SDS011;59638;52.126;5.434;2022-07-18T02:14:30;4.27;;;3.80;;
71790;SDS011;59638;52.126;5.434;2022-07-18T02:16:56;6.55;;;4.45;;
71790;SDS011;59638;52.126;5.434;2022-07-18T02:19:23;9.15;;;4.32;;
71790;SDS011;59638;52.126;5.434;2022-07-18T02:21:49;6.40;;;4.60;;
71790;SDS011;59638;52.126;5.434;2022-07-18T02:24:16;5.95;;;4.45;;
71790;SDS011;59638;52.126;5.434;2022-07-18T02:26:42;6.13;;;4.80;;
71790;SDS011;59638;52.126;5.434;2022-07-18T02:29:08;7.30;;;4.60;;
71790;SDS011;59638;52.126;5.434;2022-07-18T02:31:35;7.88;;;5.13;;
71790;SDS011;59638;52.126;5.434;2022-07-18T02:34:01;10.48;;;4.82;;
71790;SDS011;59638;52.126;5.434;2022-07-18T02:36:36;8.50;;;4.80;;
71790;SDS011;59638;52.126;5.434;2022-07-18T02:39:04;5.93;;;4.73;;
71790;SDS011;59638;52.126;5.434;2022-07-18T02:41:31;12.75;;;5.03;;
71790;SDS011;59638;52.126;5.434;2022-07-18T02:43:58;9.35;;;5.07;;
71790;SDS011;59638;52.126;5.434;2022-07-18T02:46:25;6.70;;;4.45;;
71790;SDS011;59638;52.126;5.434;2022-07-18T02:48:52;6.75;;;4.68;;
71790;SDS011;59638;52.126;5.434;2022-07-18T02:51:18;8.13;;;4.10;;
71790;SDS011;59638;52.126;5.434;2022-07-18T02:53:45;10.07;;;4.30;;
71790;SDS011;59638;52.126;5.434;2022-07-18T02:56:12;9.98;;;4.80;;
71790;SDS011;59638;52.126;5.434;2022-07-18T02:58:39;7.72;;;4.65;;
71790;SDS011;59638;52.126;5.434;2022-07-18T03:01:06;6.63;;;5.07;;
71790;SDS011;59638;52.126;5.434;2022-07-18T03:03:32;6.73;;;4.80;;
71790;SDS011;59638;52.126;5.434;2022-07-18T03:05:59;7.13;;;4.20;;
71790;SDS011;59638;52.126;5.434;2022-07-18T03:08:25;5.70;;;4.75;;
71790;SDS011;59638;52.126;5.434;2022-07-18T03:10:52;7.00;;;4.78;;
71790;SDS011;59638;52.126;5.434;2022-07-18T03:13:18;6.55;;;4.88;;
71790;SDS011;59638;52.126;5.434;2022-07-18T03:15:45;10.20;;;5.03;;
71790;SDS011;59638;52.126;5.434;2022-07-18T03:18:11;8.80;;;5.03;;
71790;SDS011;59638;52.126;5.434;2022-07-18T03:20:37;7.18;;;4.53;;
71790;SDS011;59638;52.126;5.434;2022-07-18T03:23:05;9.43;;;4.90;;
71790;SDS011;59638;52.126;5.434;2022-07-18T03:25:32;8.45;;;5.40;;
71790;SDS011;59638;52.126;5.434;2022-07-18T03:27:58;11.40;;;4.93;;
71790;SDS011;59638;52.126;5.434;2022-07-18T03:30:25;6.95;;;4.65;;
71790;SDS011;59638;52.126;5.434;2022-07-18T03:32:51;6.57;;;4.82;;
71790;SDS011;59638;52.126;5.434;2022-07-18T03:35:18;5.47;;;4.80;;
71790;SDS011;59638;52.126;5.434;2022-07-18T03:37:44;6.57;;;4.75;;
71790;SDS011;59638;52.126;5.434;2022-07-18T03:40:11;7.43;;;4.83;;
71790;SDS011;59638;52.126;5.434;2022-07-18T03:42:38;6.35;;;4.13;;
71790;SDS011;59638;52.126;5.434;2022-07-18T03:45:07;7.22;;;4.35;;
71790;SDS011;59638;52.126;5.434;2022-07-18T03:47:34;7.00;;;4.38;;
71790;SDS011;59638;52.126;5.434;2022-07-18T03:50:01;6.43;;;4.50;;
71790;SDS011;59638;52.126;5.434;2022-07-18T03:52:27;6.67;;;4.00;;
71790;SDS011;59638;52.126;5.434;2022-07-18T03:54:53;6.07;;;4.18;;
71790;SDS011;59638;52.126;5.434;2022-07-18T03:57:20;8.57;;;4.70;;
71790;SDS011;59638;52.126;5.434;2022-07-18T03:59:47;7.22;;;4.70;;
71790;SDS011;59638;52.126;5.434;2022-07-18T04:02:13;7.40;;;4.55;;
71790;SDS011;59638;52.126;5.434;2022-07-18T04:04:40;8.33;;;4.57;;
71790;SDS011;59638;52.126;5.434;2022-07-18T04:07:06;5.18;;;4.38;;
71790;SDS011;59638;52.126;5.434;2022-07-18T04:09:32;8.35;;;4.95;;
71790;SDS011;59638;52.126;5.434;2022-07-18T04:11:59;8.65;;;4.10;;
71790;SDS011;59638;52.126;5.434;2022-07-18T04:14:25;10.10;;;4.40;;
71790;SDS011;59638;52.126;5.434;2022-07-18T04:16:52;7.47;;;4.40;;
71790;SDS011;59638;52.126;5.434;2022-07-18T04:19:18;5.97;;;4.53;;
71790;SDS011;59638;52.126;5.434;2022-07-18T04:21:45;6.07;;;4.57;;
71790;SDS011;59638;52.126;5.434;2022-07-18T04:24:11;7.68;;;4.13;;
71790;SDS011;59638;52.126;5.434;2022-07-18T04:26:38;6.82;;;4.85;;
71790;SDS011;59638;52.126;5.434;2022-07-18T04:29:04;8.40;;;3.90;;
71790;SDS011;59638;52.126;5.434;2022-07-18T04:31:31;11.88;;;4.60;;
71790;SDS011;59638;52.126;5.434;2022-07-18T04:33:57;7.78;;;4.80;;
71790;SDS011;59638;52.126;5.434;2022-07-18T04:36:24;7.10;;;4.25;;
71790;SDS011;59638;52.126;5.434;2022-07-18T04:38:51;9.05;;;4.85;;
71790;SDS011;59638;52.126;5.434;2022-07-18T04:41:18;10.57;;;4.60;;
71790;SDS011;59638;52.126;5.434;2022-07-18T04:43:48;5.68;;;4.53;;
71790;SDS011;59638;52.126;5.434;2022-07-18T04:46:14;11.25;;;4.68;;
71790;SDS011;59638;52.126;5.434;2022-07-18T04:48:41;11.23;;;4.20;;
71790;SDS011;59638;52.126;5.434;2022-07-18T04:51:07;8.02;;;4.38;;
71790;SDS011;59638;52.126;5.434;2022-07-18T04:53:34;6.60;;;4.40;;
71790;SDS011;59638;52.126;5.434;2022-07-18T04:56:00;7.03;;;5.05;;
71790;SDS011;59638;52.126;5.434;2022-07-18T04:58:27;6.10;;;4.63;;
71790;SDS011;59638;52.126;5.434;2022-07-18T05:00:53;5.80;;;4.78;;
71790;SDS011;59638;52.126;5.434;2022-07-18T05:03:21;10.10;;;5.20;;
71790;SDS011;59638;52.126;5.434;2022-07-18T05:05:48;12.53;;;5.40;;
71790;SDS011;59638;52.126;5.434;2022-07-18T05:08:14;16.20;;;5.32;;
71790;SDS011;59638;52.126;5.434;2022-07-18T05:10:41;7.20;;;5.30;;
71790;SDS011;59638;52.126;5.434;2022-07-18T05:13:07;10.77;;;4.95;;
71790;SDS011;59638;52.126;5.434;2022-07-18T05:15:34;5.03;;;4.18;;
71790;SDS011;59638;52.126;5.434;2022-07-18T05:18:00;8.33;;;4.80;;
71790;SDS011;59638;52.126;5.434;2022-07-18T05:20:28;7.10;;;4.13;;
71790;SDS011;59638;52.126;5.434;2022-07-18T05:22:55;7.50;;;4.65;;
71790;SDS011;59638;52.126;5.434;2022-07-18T05:25:21;8.30;;;4.88;;
71790;SDS011;59638;52.126;5.434;2022-07-18T05:27:49;5.88;;;4.18;;
71790;SDS011;59638;52.126;5.434;2022-07-18T05:30:16;8.77;;;4.27;;
71790;SDS011;59638;52.126;5.434;2022-07-18T05:32:43;6.53;;;4.43;;
71790;SDS011;59638;52.126;5.434;2022-07-18T05:35:12;7.20;;;4.40;;
71790;SDS011;59638;52.126;5.434;2022-07-18T05:37:39;5.70;;;4.20;;
71790;SDS011;59638;52.126;5.434;2022-07-18T05:40:07;6.32;;;4.68;;
71790;SDS011;59638;52.126;5.434;2022-07-18T05:42:35;9.37;;;4.33;;
71790;SDS011;59638;52.126;5.434;2022-07-18T05:45:19;7.20;;;4.35;;
71790;SDS011;59638;52.126;5.434;2022-07-18T05:47:45;6.70;;;4.85;;
71790;SDS011;59638;52.126;5.434;2022-07-18T05:50:12;7.25;;;5.03;;
71790;SDS011;59638;52.126;5.434;2022-07-18T05:52:38;10.73;;;5.72;;
71790;SDS011;59638;52.126;5.434;2022-07-18T05:55:05;8.17;;;5.30;;
71790;SDS011;59638;52.126;5.434;2022-07-18T05:57:32;7.18;;;4.75;;
71790;SDS011;59638;52.126;5.434;2022-07-18T05:59:59;6.78;;;4.53;;
71790;SDS011;59638;52.126;5.434;2022-07-18T06:02:25;11.85;;;5.05;;
71790;SDS011;59638;52.126;5.434;2022-07-18T06:04:52;7.68;;;4.70;;
71790;SDS011;59638;52.126;5.434;2022-07-18T06:07:38;6.87;;;4.13;;
71790;SDS011;59638;52.126;5.434;2022-07-18T06:10:05;12.70;;;4.70;;
71790;SDS011;59638;52.126;5.434;2022-07-18T06:12:32;8.85;;;5.75;;
71790;SDS011;59638;52.126;5.434;2022-07-18T06:14:59;7.05;;;4.47;;
71790;SDS011;59638;52.126;5.434;2022-07-18T06:17:26;6.35;;;4.55;;
71790;SDS011;59638;52.126;5.434;2022-07-18T06:19:56;7.07;;;3.80;;
71790;SDS011;59638;52.126;5.434;2022-07-18T06:22:23;9.38;;;5.07;;
71790;SDS011;59638;52.126;5.434;2022-07-18T06:24:50;10.85;;;4.88;;
71790;SDS011;59638;52.126;5.434;2022-07-18T06:27:17;9.60;;;4.60;;
71790;SDS011;59638;52.126;5.434;2022-07-18T06:29:44;9.00;;;4.88;;
71790;SDS011;59638;52.126;5.434;2022-07-18T06:32:10;7.83;;;4.90;;
71790;SDS011;59638;52.126;5.434;2022-07-18T06:34:37;10.57;;;4.25;;
71790;SDS011;59638;52.126;5.434;2022-07-18T06:37:03;9.90;;;4.75;;
71790;SDS011;59638;52.126;5.434;2022-07-18T06:39:29;9.15;;;4.55;;
71790;SDS011;59638;52.126;5.434;2022-07-18T06:41:57;9.55;;;4.80;;
71790;SDS011;59638;52.126;5.434;2022-07-18T06:44:24;17.63;;;4.73;;
71790;SDS011;59638;52.126;5.434;2022-07-18T06:46:50;13.75;;;4.43;;
71790;SDS011;59638;52.126;5.434;2022-07-18T06:49:18;13.85;;;4.72;;
71790;SDS011;59638;52.126;5.434;2022-07-18T06:51:45;4.95;;;4.05;;
71790;SDS011;59638;52.126;5.434;2022-07-18T06:54:11;8.13;;;3.45;;
71790;SDS011;59638;52.126;5.434;2022-07-18T06:56:38;6.87;;;2.97;;
71790;SDS011;59638;52.126;5.434;2022-07-18T06:59:04;6.65;;;3.70;;
71790;SDS011;59638;52.126;5.434;2022-07-18T07:01:31;5.78;;;3.65;;
71790;SDS011;59638;52.126;5.434;2022-07-18T07:03:58;8.27;;;3.17;;
71790;SDS011;59638;52.126;5.434;2022-07-18T07:06:24;10.48;;;2.25;;
71790;SDS011;59638;52.126;5.434;2022-07-18T07:08:50;5.00;;;2.93;;
71790;SDS011;59638;52.126;5.434;2022-07-18T07:11:17;4.07;;;2.25;;
71790;SDS011;59638;52.126;5.434;2022-07-18T07:13:43;9.73;;;2.25;;
71790;SDS011;59638;52.126;5.434;2022-07-18T07:16:10;4.78;;;1.80;;
71790;SDS011;59638;52.126;5.434;2022-07-18T07:18:36;6.45;;;2.78;;
71790;SDS011;59638;52.126;5.434;2022-07-18T07:21:02;4.73;;;2.17;;
71790;SDS011;59638;52.126;5.434;2022-07-18T07:23:29;8.93;;;3.30;;
71790;SDS011;59638;52.126;5.434;2022-07-18T07:25:55;3.60;;;1.90;;
71790;SDS011;59638;52.126;5.434;2022-07-18T07:28:22;5.22;;;1.67;;
71790;SDS011;59638;52.126;5.434;2022-07-18T07:30:48;4.43;;;1.70;;
71790;SDS011;59638;52.126;5.434;2022-07-18T07:33:15;3.30;;;1.73;;
71790;SDS011;59638;52.126;5.434;2022-07-18T07:35:41;4.43;;;1.55;;
71790;SDS011;59638;52.126;5.434;2022-07-18T07:38:08;6.22;;;2.20;;
71790;SDS011;59638;52.126;5.434;2022-07-18T07:40:34;4.63;;;1.67;;
71790;SDS011;59638;52.126;5.434;2022-07-18T07:43:07;5.07;;;1.60;;
71790;SDS011;59638;52.126;5.434;2022-07-18T07:45:35;12.00;;;2.03;;
71790;SDS011;59638;52.126;5.434;2022-07-18T07:48:02;5.07;;;1.92;;
71790;SDS011;59638;52.126;5.434;2022-07-18T07:50:29;13.45;;;2.10;;
71790;SDS011;59638;52.126;5.434;2022-07-18T07:52:56;4.63;;;1.50;;
71790;SDS011;59638;52.126;5.434;2022-07-18T07:55:23;2.95;;;1.60;;
71790;SDS011;59638;52.126;5.434;2022-07-18T07:57:51;3.53;;;1.20;;
71790;SDS011;59638;52.126;5.434;2022-07-18T08:00:17;4.57;;;1.77;;
71790;SDS011;59638;52.126;5.434;2022-07-18T08:02:51;5.43;;;1.75;;
71790;SDS011;59638;52.126;5.434;2022-07-18T08:05:25;6.13;;;1.25;;
71790;SDS011;59638;52.126;5.434;2022-07-18T08:07:53;5.60;;;1.10;;
71790;SDS011;59638;52.126;5.434;2022-07-18T08:10:19;4.37;;;1.00;;
71790;SDS011;59638;52.126;5.434;2022-07-18T08:12:46;3.72;;;1.52;;
71790;SDS011;59638;52.126;5.434;2022-07-18T08:15:12;3.05;;;1.10;;
71790;SDS011;59638;52.126;5.434;2022-07-18T08:17:39;4.25;;;1.52;;
71790;SDS011;59638;52.126;5.434;2022-07-18T08:20:12;8.75;;;1.20;;
71790;SDS011;59638;52.126;5.434;2022-07-18T08:22:52;3.17;;;1.23;;
71790;SDS011;59638;52.126;5.434;2022-07-18T08:25:25;6.00;;;1.40;;
71790;SDS011;59638;52.126;5.434;2022-07-18T08:27:54;2.00;;;1.33;;
71790;SDS011;59638;52.126;5.434;2022-07-18T08:30:21;1.85;;;1.17;;
71790;SDS011;59638;52.126;5.434;2022-07-18T08:32:48;10.00;;;1.83;;
71790;SDS011;59638;52.126;5.434;2022-07-18T08:35:14;3.40;;;1.37;;
71790;SDS011;59638;52.126;5.434;2022-07-18T08:37:42;4.53;;;1.15;;
71790;SDS011;59638;52.126;5.434;2022-07-18T08:40:09;6.22;;;1.40;;
71790;SDS011;59638;52.126;5.434;2022-07-18T08:42:35;4.53;;;1.42;;
71790;SDS011;59638;52.126;5.434;2022-07-18T08:45:21;2.30;;;1.67;;
71790;SDS011;59638;52.126;5.434;2022-07-18T08:47:50;4.90;;;1.20;;
71790;SDS011;59638;52.126;5.434;2022-07-18T08:50:18;4.80;;;1.33;;
71790;SDS011;59638;52.126;5.434;2022-07-18T08:52:45;6.15;;;1.60;;
71790;SDS011;59638;52.126;5.434;2022-07-18T08:55:20;4.05;;;1.20;;
71790;SDS011;59638;52.126;5.434;2022-07-18T08:57:52;5.50;;;1.30;;
71790;SDS011;59638;52.126;5.434;2022-07-18T09:00:20;8.03;;;1.30;;
71790;SDS011;59638;52.126;5.434;2022-07-18T09:02:57;5.53;;;1.67;;
71790;SDS011;59638;52.126;5.434;2022-07-18T09:05:25;5.38;;;1.48;;
71790;SDS011;59638;52.126;5.434;2022-07-18T09:08:08;4.45;;;1.48;;
71790;SDS011;59638;52.126;5.434;2022-07-18T09:10:48;6.90;;;1.38;;
71790;SDS011;59638;52.126;5.434;2022-07-18T09:13:19;2.63;;;1.13;;
71790;SDS011;59638;52.126;5.434;2022-07-18T09:16:08;13.30;;;1.40;;
71790;SDS011;59638;52.126;5.434;2022-07-18T09:18:40;8.25;;;1.48;;
71790;SDS011;59638;52.126;5.434;2022-07-18T09:21:09;10.93;;;1.55;;
71790;SDS011;59638;52.126;5.434;2022-07-18T09:23:42;2.10;;;0.93;;
71790;SDS011;59638;52.126;5.434;2022-07-18T09:26:10;5.20;;;1.43;;
71790;SDS011;59638;52.126;5.434;2022-07-18T09:28:48;5.22;;;1.30;;
71790;SDS011;59638;52.126;5.434;2022-07-18T09:31:36;4.55;;;1.48;;
71790;SDS011;59638;52.126;5.434;2022-07-18T09:34:03;7.25;;;0.98;;
71790;SDS011;59638;52.126;5.434;2022-07-18T09:36:30;11.70;;;1.88;;
71790;SDS011;59638;52.126;5.434;2022-07-18T09:39:15;9.17;;;1.50;;
71790;SDS011;59638;52.126;5.434;2022-07-18T09:41:47;3.08;;;1.10;;
71790;SDS011;59638;52.126;5.434;2022-07-18T09:44:17;3.25;;;1.23;;
71790;SDS011;59638;52.126;5.434;2022-07-18T09:47:03;3.22;;;0.75;;
71790;SDS011;59638;52.126;5.434;2022-07-18T09:49:31;4.70;;;1.23;;
71790;SDS011;59638;52.126;5.434;2022-07-18T09:52:04;3.30;;;0.83;;
71790;SDS011;59638;52.126;5.434;2022-07-18T09:54:42;4.53;;;1.00;;
71790;SDS011;59638;52.126;5.434;2022-07-18T09:57:10;2.08;;;0.80;;
71790;SDS011;59638;52.126;5.434;2022-07-18T09:59:49;5.80;;;1.08;;
71790;SDS011;59638;52.126;5.434;2022-07-18T10:02:16;3.33;;;1.00;;
71790;SDS011;59638;52.126;5.434;2022-07-18T10:04:43;4.57;;;0.93;;
71790;SDS011;59638;52.126;5.434;2022-07-18T10:07:10;6.38;;;1.10;;
71790;SDS011;59638;52.126;5.434;2022-07-18T10:09:37;2.67;;;1.35;;
71790;SDS011;59638;52.126;5.434;2022-07-18T10:12:05;3.80;;;1.10;;
71790;SDS011;59638;52.126;5.434;2022-07-18T10:14:32;4.70;;;0.90;;
71790;SDS011;59638;52.126;5.434;2022-07-18T10:16:59;9.07;;;0.93;;
71790;SDS011;59638;52.126;5.434;2022-07-18T10:19:26;3.70;;;1.77;;
71790;SDS011;59638;52.126;5.434;2022-07-18T10:21:54;3.75;;;1.40;;
71790;SDS011;59638;52.126;5.434;2022-07-18T10:24:23;4.93;;;1.38;;
71790;SDS011;59638;52.126;5.434;2022-07-18T10:29:37;3.93;;;1.30;;
71790;SDS011;59638;52.126;5.434;2022-07-18T10:32:04;3.88;;;1.50;;
71790;SDS011;59638;52.126;5.434;2022-07-18T10:34:33;4.05;;;2.80;;
71790;SDS011;59638;52.126;5.434;2022-07-18T10:39:33;5.13;;;1.15;;
71790;SDS011;59638;52.126;5.434;2022-07-18T10:57:32;4.22;;;1.35;;
71790;SDS011;59638;52.126;5.434;2022-07-18T11:00:04;4.35;;;2.15;;
71790;SDS011;59638;52.126;5.434;2022-07-18T11:05:41;1.88;;;1.20;;
71790;SDS011;59638;52.126;5.434;2022-07-18T11:21:23;2.17;;;1.20;;
71790;SDS011;59638;52.126;5.434;2022-07-18T11:23:52;12.82;;;1.90;;
71790;SDS011;59638;52.126;5.434;2022-07-18T11:26:21;2.92;;;2.00;;
71790;SDS011;59638;52.126;5.434;2022-07-18T11:28:56;2.30;;;1.48;;
71790;SDS011;59638;52.126;5.434;2022-07-18T11:31:24;6.63;;;2.03;;
71790;SDS011;59638;52.126;5.434;2022-07-18T11:33:51;2.97;;;1.50;;
71790;SDS011;59638;52.126;5.434;2022-07-18T11:36:18;2.17;;;1.60;;
71790;SDS011;59638;52.126;5.434;2022-07-18T11:38:54;4.70;;;1.88;;
71790;SDS011;59638;52.126;5.434;2022-07-18T11:41:23;6.70;;;1.75;;
71790;SDS011;59638;52.126;5.434;2022-07-18T11:43:51;4.38;;;2.20;;
71790;SDS011;59638;52.126;5.434;2022-07-18T11:46:20;2.57;;;1.73;;
71790;SDS011;59638;52.126;5.434;2022-07-18T11:49:01;3.55;;;2.20;;
71790;SDS011;59638;52.126;5.434;2022-07-18T11:51:33;4.22;;;2.05;;
71790;SDS011;59638;52.126;5.434;2022-07-18T11:54:04;3.10;;;1.83;;
71790;SDS011;59638;52.126;5.434;2022-07-18T11:56:31;4.95;;;2.58;;
71790;SDS011;59638;52.126;5.434;2022-07-18T11:58:58;8.93;;;2.13;;
71790;SDS011;59638;52.126;5.434;2022-07-18T12:01:33;4.28;;;2.05;;
71790;SDS011;59638;52.126;5.434;2022-07-18T12:04:00;5.28;;;2.20;;
71790;SDS011;59638;52.126;5.434;2022-07-18T12:06:28;2.38;;;2.00;;
71790;SDS011;59638;52.126;5.434;2022-07-18T12:08:55;2.65;;;1.52;;
71790;SDS011;59638;52.126;5.434;2022-07-18T12:11:31;3.23;;;1.87;;
71790;SDS011;59638;52.126;5.434;2022-07-18T12:16:37;5.03;;;1.50;;
71790;SDS011;59638;52.126;5.434;2022-07-18T12:19:06;4.15;;;1.65;;
71790;SDS011;59638;52.126;5.434;2022-07-18T12:21:48;5.25;;;1.70;;
71790;SDS011;59638;52.126;5.434;2022-07-18T12:29:52;3.47;;;1.88;;
71790;SDS011;59638;52.126;5.434;2022-07-18T12:32:45;2.33;;;2.13;;
71790;SDS011;59638;52.126;5.434;2022-07-18T12:40:44;2.08;;;1.67;;
71790;SDS011;59638;52.126;5.434;2022-07-18T12:43:12;2.00;;;1.90;;
71790;SDS011;59638;52.126;5.434;2022-07-18T12:45:41;3.60;;;1.67;;
71790;SDS011;59638;52.126;5.434;2022-07-18T12:48:09;2.75;;;2.05;;
71790;SDS011;59638;52.126;5.434;2022-07-18T12:50:38;4.00;;;1.50;;
71790;SDS011;59638;52.126;5.434;2022-07-18T12:53:05;5.13;;;1.85;;
71790;SDS011;59638;52.126;5.434;2022-07-18T12:55:32;2.13;;;1.92;;
71790;SDS011;59638;52.126;5.434;2022-07-18T12:57:59;2.20;;;1.70;;
71790;SDS011;59638;52.126;5.434;2022-07-18T13:00:27;2.08;;;1.90;;
71790;SDS011;59638;52.126;5.434;2022-07-18T13:02:56;5.60;;;2.30;;
71790;SDS011;59638;52.126;5.434;2022-07-18T13:05:24;2.17;;;1.52;;
71790;SDS011;59638;52.126;5.434;2022-07-18T13:07:52;4.55;;;1.67;;
71790;SDS011;59638;52.126;5.434;2022-07-18T13:10:18;2.53;;;1.70;;
71790;SDS011;59638;52.126;5.434;2022-07-18T13:12:45;3.13;;;1.83;;
71790;SDS011;59638;52.126;5.434;2022-07-18T13:15:12;1.77;;;1.67;;
71790;SDS011;59638;52.126;5.434;2022-07-18T13:17:38;2.90;;;1.00;;
71790;SDS011;59638;52.126;5.434;2022-07-18T13:20:05;2.10;;;1.55;;
71790;SDS011;59638;52.126;5.434;2022-07-18T13:22:32;4.38;;;1.13;;
71790;SDS011;59638;52.126;5.434;2022-07-18T13:25:07;3.45;;;1.38;;
71790;SDS011;59638;52.126;5.434;2022-07-18T13:27:35;2.87;;;1.10;;
71790;SDS011;59638;52.126;5.434;2022-07-18T13:30:03;2.10;;;0.93;;
71790;SDS011;59638;52.126;5.434;2022-07-18T13:32:32;3.20;;;1.00;;
71790;SDS011;59638;52.126;5.434;2022-07-18T13:34:59;2.85;;;1.40;;
71790;SDS011;59638;52.126;5.434;2022-07-18T13:37:25;1.50;;;0.80;;
71790;SDS011;59638;52.126;5.434;2022-07-18T13:39:52;1.87;;;0.80;;
71790;SDS011;59638;52.126;5.434;2022-07-18T13:42:19;1.30;;;0.75;;
71790;SDS011;59638;52.126;5.434;2022-07-18T13:44:45;4.43;;;1.25;;
71790;SDS011;59638;52.126;5.434;2022-07-18T13:47:12;3.70;;;1.17;;
71790;SDS011;59638;52.126;5.434;2022-07-18T13:49:39;3.17;;;1.15;;
71790;SDS011;59638;52.126;5.434;2022-07-18T13:52:06;3.17;;;1.17;;
71790;SDS011;59638;52.126;5.434;2022-07-18T13:54:36;1.20;;;0.88;;
71790;SDS011;59638;52.126;5.434;2022-07-18T13:57:02;2.03;;;0.90;;
71790;SDS011;59638;52.126;5.434;2022-07-18T13:59:30;2.40;;;0.98;;
71790;SDS011;59638;52.126;5.434;2022-07-18T14:01:56;1.85;;;0.70;;
71790;SDS011;59638;52.126;5.434;2022-07-18T14:04:23;3.70;;;1.13;;
71790;SDS011;59638;52.126;5.434;2022-07-18T14:06:49;3.53;;;1.10;;
71790;SDS011;59638;52.126;5.434;2022-07-18T14:09:17;4.78;;;0.80;;
71790;SDS011;59638;52.126;5.434;2022-07-18T14:11:43;1.73;;;0.80;;
71790;SDS011;59638;52.126;5.434;2022-07-18T14:14:10;4.35;;;0.70;;
71790;SDS011;59638;52.126;5.434;2022-07-18T14:16:36;4.97;;;0.73;;
71790;SDS011;59638;52.126;5.434;2022-07-18T14:19:03;2.05;;;0.90;;
71790;SDS011;59638;52.126;5.434;2022-07-18T14:21:31;2.20;;;1.00;;
71790;SDS011;59638;52.126;5.434;2022-07-18T14:23:58;2.83;;;0.70;;
71790;SDS011;59638;52.126;5.434;2022-07-18T14:26:24;2.80;;;0.90;;
71790;SDS011;59638;52.126;5.434;2022-07-18T14:28:52;3.13;;;0.90;;
71790;SDS011;59638;52.126;5.434;2022-07-18T14:31:19;3.88;;;0.70;;
71790;SDS011;59638;52.126;5.434;2022-07-18T14:33:45;1.70;;;1.30;;
71790;SDS011;59638;52.126;5.434;2022-07-18T14:36:11;2.25;;;1.13;;
71790;SDS011;59638;52.126;5.434;2022-07-18T14:38:38;3.08;;;1.02;;
71790;SDS011;59638;52.126;5.434;2022-07-18T14:41:05;4.20;;;1.27;;
71790;SDS011;59638;52.126;5.434;2022-07-18T14:43:34;2.88;;;0.93;;
71790;SDS011;59638;52.126;5.434;2022-07-18T14:46:00;1.15;;;0.95;;
71790;SDS011;59638;52.126;5.434;2022-07-18T14:48:29;2.50;;;1.00;;
71790;SDS011;59638;52.126;5.434;2022-07-18T14:50:56;3.65;;;1.20;;
71790;SDS011;59638;52.126;5.434;2022-07-18T14:53:22;1.10;;;0.80;;
71790;SDS011;59638;52.126;5.434;2022-07-18T14:55:49;3.50;;;0.70;;
71790;SDS011;59638;52.126;5.434;2022-07-18T14:58:16;2.83;;;1.08;;
71790;SDS011;59638;52.126;5.434;2022-07-18T15:00:44;5.18;;;0.90;;
71790;SDS011;59638;52.126;5.434;2022-07-18T15:03:11;2.97;;;1.35;;
71790;SDS011;59638;52.126;5.434;2022-07-18T15:05:58;1.80;;;0.60;;
71790;SDS011;59638;52.126;5.434;2022-07-18T15:08:24;1.90;;;0.75;;
71790;SDS011;59638;52.126;5.434;2022-07-18T15:10:50;1.75;;;1.17;;
71790;SDS011;59638;52.126;5.434;2022-07-18T15:13:17;2.92;;;1.05;;
71790;SDS011;59638;52.126;5.434;2022-07-18T15:15:44;1.20;;;0.90;;
71790;SDS011;59638;52.126;5.434;2022-07-18T15:18:10;3.13;;;0.90;;
71790;SDS011;59638;52.126;5.434;2022-07-18T15:20:36;2.30;;;1.38;;
71790;SDS011;59638;52.126;5.434;2022-07-18T15:23:10;4.53;;;1.00;;
71790;SDS011;59638;52.126;5.434;2022-07-18T15:25:36;4.20;;;0.68;;
71790;SDS011;59638;52.126;5.434;2022-07-18T15:28:03;2.33;;;1.15;;
71790;SDS011;59638;52.126;5.434;2022-07-18T15:30:29;2.33;;;0.93;;
71790;SDS011;59638;52.126;5.434;2022-07-18T15:33:12;2.78;;;0.77;;
71790;SDS011;59638;52.126;5.434;2022-07-18T15:35:40;4.18;;;1.25;;
71790;SDS011;59638;52.126;5.434;2022-07-18T15:38:06;2.85;;;0.70;;
71790;SDS011;59638;52.126;5.434;2022-07-18T15:40:33;2.90;;;1.42;;
71790;SDS011;59638;52.126;5.434;2022-07-18T15:42:59;2.00;;;1.00;;